Time;durP1;ratioP1;P1;durP2;ratioP2;P2;SDS_P1;SDS_P2;PMS_P1;PMS_P2;Temp;Humidity;BMP_temperature;BMP_pressure;BME280_temperature;BME280_humidity;BME280_pressure;Samples;Min_cycle;Max_cycle;Signal;HPM_P1;HPM_P2
2023/09/06 00:01:36;;;;;;;10.48;9.40;;;19.70;99.90;;;;;;4964278;28;20042;-49
2023/09/06 00:04:02;;;;;;;9.93;9.02;;;19.70;99.90;;;;;;4964407;28;20430;-48
2023/09/06 00:06:27;;;;;;;10.65;9.65;;;19.60;99.90;;;;;;4982490;28;20147;-51
2023/09/06 00:08:53;;;;;;;11.07;9.25;;;19.50;99.90;;;;;;4984732;28;20057;-48
2023/09/06 00:11:19;;;;;;;11.77;10.00;;;19.40;99.90;;;;;;4983751;28;20745;-50
2023/09/06 00:13:44;;;;;;;11.95;9.70;;;19.40;99.90;;;;;;4983141;28;20049;-49
2023/09/06 00:16:10;;;;;;;10.60;9.52;;;19.30;99.90;;;;;;4983342;28;20057;-48
2023/09/06 00:18:37;;;;;;;13.75;10.00;;;19.30;99.90;;;;;;4983439;28;20050;-49
2023/09/06 00:21:03;;;;;;;12.65;10.38;;;19.30;99.90;;;;;;4982333;28;20065;-52
2023/09/06 00:23:29;;;;;;;11.75;9.85;;;19.20;99.90;;;;;;4983257;28;20042;-51
2023/09/06 00:25:55;;;;;;;12.13;10.00;;;19.30;99.90;;;;;;4983886;28;20050;-50
2023/09/06 00:28:23;;;;;;;12.38;10.40;;;19.20;99.90;;;;;;4983914;28;20044;-51
2023/09/06 00:30:50;;;;;;;11.88;10.65;;;19.20;99.90;;;;;;4982975;28;20404;-52
2023/09/06 00:33:15;;;;;;;11.88;10.63;;;19.10;99.90;;;;;;4979951;28;20073;-49
2023/09/06 00:35:41;;;;;;;13.48;11.20;;;19.00;99.90;;;;;;4982906;28;20115;-52
2023/09/06 00:38:07;;;;;;;11.48;10.38;;;19.00;99.90;;;;;;4983025;28;20095;-49
2023/09/06 00:40:37;;;;;;;12.23;10.93;;;19.00;99.90;;;;;;4981957;28;20049;-49
2023/09/06 00:43:04;;;;;;;15.70;10.82;;;19.00;99.90;;;;;;4983356;28;20054;-49
2023/09/06 00:45:30;;;;;;;11.60;10.43;;;18.90;99.90;;;;;;4985175;28;20046;-49
2023/09/06 00:47:57;;;;;;;11.40;10.27;;;19.00;99.90;;;;;;4985054;28;20448;-52
2023/09/06 00:50:25;;;;;;;11.85;10.65;;;18.90;99.90;;;;;;4986049;28;20493;-49
2023/09/06 00:52:52;;;;;;;10.80;9.70;;;18.90;99.90;;;;;;4985784;28;20078;-51
2023/09/06 00:55:20;;;;;;;11.05;10.00;;;18.90;99.90;;;;;;4983208;28;20038;-50
2023/09/06 00:57:47;;;;;;;11.50;10.30;;;18.80;99.90;;;;;;4975574;28;20078;-49
2023/09/06 01:00:17;;;;;;;11.30;9.57;;;18.80;99.90;;;;;;4968166;28;20047;-49
2023/09/06 01:02:47;;;;;;;11.60;10.25;;;18.80;99.90;;;;;;4965511;28;20097;-51
2023/09/06 01:05:14;;;;;;;11.32;10.25;;;18.80;99.90;;;;;;4967461;28;20082;-49
2023/09/06 01:07:43;;;;;;;12.90;11.60;;;18.80;99.90;;;;;;4967534;28;20047;-48
2023/09/06 01:10:09;;;;;;;11.70;10.07;;;18.80;99.90;;;;;;4967787;28;20097;-48
2023/09/06 01:12:35;;;;;;;10.85;9.85;;;18.70;99.90;;;;;;4974999;28;20046;-48
2023/09/06 01:15:03;;;;;;;10.95;9.90;;;18.70;99.90;;;;;;4987261;28;20052;-49
2023/09/06 01:17:31;;;;;;;11.68;10.48;;;18.60;99.90;;;;;;4986212;28;20046;-50
2023/09/06 01:20:29;;;;;;;11.77;10.50;;;18.70;99.90;;;;;;4986851;28;20467;-50
2023/09/06 01:23:12;;;;;;;12.63;11.40;;;18.70;99.90;;;;;;4972569;28;20054;-52
2023/09/06 01:25:38;;;;;;;12.73;10.98;;;18.60;99.90;;;;;;4987112;28;20054;-48
2023/09/06 01:28:04;;;;;;;13.90;11.27;;;18.60;99.90;;;;;;4986951;28;20044;-50
2023/09/06 01:30:29;;;;;;;12.15;10.98;;;18.60;99.90;;;;;;4986628;28;20151;-54
2023/09/06 01:32:55;;;;;;;12.32;11.13;;;18.60;99.90;;;;;;4985483;28;20578;-49
2023/09/06 01:35:21;;;;;;;12.82;11.15;;;18.60;99.90;;;;;;4986695;28;20444;-51
2023/09/06 01:37:50;;;;;;;15.38;11.40;;;18.60;99.90;;;;;;4985104;28;20105;-49
2023/09/06 01:40:19;;;;;;;12.52;11.23;;;18.50;99.90;;;;;;4985708;28;20059;-49
2023/09/06 01:42:46;;;;;;;12.35;11.15;;;18.50;99.90;;;;;;4986916;28;20074;-50
2023/09/06 01:45:17;;;;;;;11.93;10.80;;;18.50;99.90;;;;;;4986483;28;20056;-48
2023/09/06 01:47:46;;;;;;;14.15;11.02;;;18.50;99.90;;;;;;4984642;28;20086;-49
2023/09/06 01:50:12;;;;;;;12.70;11.15;;;18.40;99.90;;;;;;4986769;28;20051;-51
2023/09/06 01:52:40;;;;;;;12.52;11.30;;;18.40;99.90;;;;;;4985434;28;20046;-48
2023/09/06 01:55:09;;;;;;;11.73;10.15;;;18.40;99.90;;;;;;4983801;28;20126;-48
2023/09/06 01:57:35;;;;;;;12.75;11.55;;;18.40;99.90;;;;;;4976175;28;20047;-48
2023/09/06 02:00:04;;;;;;;11.70;10.45;;;18.40;99.90;;;;;;4968043;28;20379;-49
2023/09/06 02:02:30;;;;;;;11.43;10.32;;;18.40;99.90;;;;;;4966351;28;20117;-49
2023/09/06 02:04:56;;;;;;;11.90;9.80;;;18.40;99.90;;;;;;4966414;28;20043;-49
2023/09/06 02:07:21;;;;;;;11.95;10.25;;;18.40;99.90;;;;;;4981190;28;20203;-48
2023/09/06 02:09:47;;;;;;;12.73;9.52;;;18.40;99.90;;;;;;4966447;28;20050;-49
2023/09/06 02:12:12;;;;;;;12.88;10.40;;;18.30;99.90;;;;;;4966453;28;20058;-49
2023/09/06 02:14:38;;;;;;;12.13;10.80;;;18.30;99.90;;;;;;4985909;28;20136;-49
2023/09/06 02:17:03;;;;;;;13.00;11.68;;;18.30;99.90;;;;;;4985893;28;20097;-49
2023/09/06 02:19:29;;;;;;;11.68;10.52;;;18.10;99.90;;;;;;4983906;28;20082;-49
2023/09/06 02:21:55;;;;;;;12.15;10.95;;;18.20;99.90;;;;;;4985047;28;20137;-49
2023/09/06 02:24:20;;;;;;;12.90;11.55;;;18.10;99.90;;;;;;4984075;28;20053;-49
2023/09/06 02:26:46;;;;;;;13.27;11.55;;;18.00;99.90;;;;;;4985576;28;20108;-50
2023/09/06 02:29:11;;;;;;;12.48;11.20;;;18.00;99.90;;;;;;4985844;28;20042;-49
2023/09/06 02:31:38;;;;;;;12.30;10.93;;;17.90;99.90;;;;;;4985291;28;20049;-49
2023/09/06 02:34:04;;;;;;;14.43;11.40;;;17.90;99.90;;;;;;4984782;28;20042;-49
2023/09/06 02:36:30;;;;;;;11.45;10.35;;;17.90;99.90;;;;;;4985741;28;20054;-48
2023/09/06 02:38:57;;;;;;;11.50;10.32;;;17.90;99.90;;;;;;4983307;28;20460;-49
2023/09/06 02:41:23;;;;;;;13.02;10.45;;;17.90;99.90;;;;;;4985124;28;20976;-48
2023/09/06 02:43:49;;;;;;;12.02;10.88;;;17.90;99.90;;;;;;4985304;28;20085;-48
2023/09/06 02:46:15;;;;;;;11.77;10.57;;;17.90;99.90;;;;;;4985451;28;20078;-50
2023/09/06 02:48:46;;;;;;;12.00;10.75;;;17.90;99.90;;;;;;4983962;28;20042;-49
2023/09/06 02:51:14;;;;;;;12.75;11.40;;;17.90;99.90;;;;;;4984991;28;20394;-49
2023/09/06 02:53:44;;;;;;;12.68;11.38;;;17.90;99.90;;;;;;4985205;28;20125;-49
2023/09/06 02:56:10;;;;;;;13.50;11.63;;;17.90;99.90;;;;;;4972411;28;20125;-50
2023/09/06 02:58:37;;;;;;;12.80;11.52;;;17.80;99.90;;;;;;4981059;28;20206;-49
2023/09/06 03:01:06;;;;;;;13.80;12.02;;;17.80;99.90;;;;;;4985502;28;20231;-50
2023/09/06 03:03:31;;;;;;;12.50;11.32;;;17.70;99.90;;;;;;4983788;28;20065;-51
2023/09/06 03:05:58;;;;;;;13.45;11.90;;;17.60;99.90;;;;;;4984865;28;20050;-49
2023/09/06 03:08:25;;;;;;;13.10;11.80;;;17.60;99.90;;;;;;4967282;28;20061;-49
2023/09/06 03:10:54;;;;;;;14.45;12.18;;;17.50;99.90;;;;;;4984495;28;20046;-49
2023/09/06 03:13:20;;;;;;;13.98;12.55;;;17.50;99.90;;;;;;4984399;28;20046;-52
2023/09/06 03:15:51;;;;;;;14.90;12.63;;;17.50;99.90;;;;;;4984888;28;20500;-47
2023/09/06 03:18:17;;;;;;;12.93;11.57;;;17.50;99.90;;;;;;4984150;28;20042;-51
2023/09/06 03:20:42;;;;;;;16.08;11.82;;;17.50;99.90;;;;;;4984745;28;20046;-50
2023/09/06 03:23:19;;;;;;;12.95;11.65;;;17.50;99.90;;;;;;4984040;28;20511;-47
2023/09/06 03:25:49;;;;;;;12.38;11.27;;;17.50;99.90;;;;;;4984430;28;20042;-50
2023/09/06 03:28:18;;;;;;;14.60;12.30;;;17.50;99.90;;;;;;4984626;28;20089;-48
2023/09/06 03:30:44;;;;;;;13.98;12.38;;;17.50;99.90;;;;;;4976480;28;20398;-51
2023/09/06 03:33:10;;;;;;;13.93;12.32;;;17.50;99.90;;;;;;4963893;28;20537;-49
2023/09/06 03:35:36;;;;;;;13.65;12.30;;;17.40;99.90;;;;;;4964540;28;20113;-48
2023/09/06 03:38:02;;;;;;;13.32;12.02;;;17.40;99.90;;;;;;4965623;28;20050;-49
2023/09/06 03:40:35;;;;;;;13.02;11.73;;;17.40;99.90;;;;;;4965038;28;20390;-49
2023/09/06 03:43:16;;;;;;;13.50;12.10;;;17.40;99.90;;;;;;4964436;28;20043;-50
2023/09/06 03:45:51;;;;;;;12.73;11.52;;;17.40;99.90;;;;;;4963773;28;20058;-48
2023/09/06 03:48:19;;;;;;;14.95;11.50;;;17.30;99.90;;;;;;4962263;28;20476;-49
2023/09/06 03:50:46;;;;;;;15.35;12.20;;;17.30;99.90;;;;;;4964809;28;20050;-50
2023/09/06 03:53:13;;;;;;;12.75;11.52;;;17.30;99.90;;;;;;4965247;28;20457;-48
2023/09/06 03:55:41;;;;;;;12.80;11.60;;;17.20;99.90;;;;;;4965005;28;20047;-51
2023/09/06 03:58:07;;;;;;;13.32;11.68;;;17.30;99.90;;;;;;4972737;28;20039;-53
2023/09/06 04:00:33;;;;;;;14.10;12.13;;;17.20;99.90;;;;;;4965013;28;20057;-48
2023/09/06 04:02:59;;;;;;;12.50;11.25;;;17.20;99.90;;;;;;4964205;28;20039;-49
2023/09/06 04:05:26;;;;;;;12.45;11.25;;;17.10;99.90;;;;;;4964183;28;20051;-51
2023/09/06 04:07:57;;;;;;;13.48;12.13;;;17.20;99.90;;;;;;4964556;28;20552;-50
2023/09/06 04:10:36;;;;;;;13.05;11.10;;;17.20;99.90;;;;;;4964967;28;20099;-50
2023/09/06 04:13:05;;;;;;;12.45;11.15;;;17.10;99.90;;;;;;4964408;28;20689;-48
2023/09/06 04:15:34;;;;;;;12.90;11.00;;;17.10;99.90;;;;;;4964126;28;20038;-51
2023/09/06 04:18:02;;;;;;;12.00;10.52;;;17.10;99.90;;;;;;4963864;28;20077;-49
2023/09/06 04:20:32;;;;;;;12.35;11.13;;;17.10;99.90;;;;;;4966646;28;20051;-50
2023/09/06 04:23:01;;;;;;;12.27;11.05;;;17.00;99.90;;;;;;4969039;28;20053;-49
2023/09/06 04:25:27;;;;;;;12.50;10.35;;;17.00;99.90;;;;;;4968495;28;20101;-49
2023/09/06 04:27:57;;;;;;;12.27;10.38;;;17.00;99.90;;;;;;4983032;28;20043;-48
2023/09/06 04:30:24;;;;;;;10.60;9.60;;;16.90;99.90;;;;;;4968604;28;20047;-49
2023/09/06 04:32:51;;;;;;;11.43;10.02;;;16.90;99.90;;;;;;4967849;28;20066;-49
2023/09/06 04:35:17;;;;;;;11.40;10.20;;;17.10;99.90;;;;;;4967668;28;20489;-49
2023/09/06 04:37:43;;;;;;;12.00;10.20;;;17.00;99.90;;;;;;4968027;28;20079;-48
2023/09/06 04:40:11;;;;;;;12.98;10.48;;;17.00;99.90;;;;;;4968036;28;20054;-48
2023/09/06 04:42:41;;;;;;;15.48;10.18;;;17.00;99.90;;;;;;4967994;28;20816;-48
2023/09/06 04:45:09;;;;;;;11.05;9.90;;;17.00;99.90;;;;;;4967073;28;20046;-48
2023/09/06 04:47:36;;;;;;;11.70;10.38;;;17.00;99.90;;;;;;4967811;28;20078;-48
2023/09/06 04:50:03;;;;;;;11.15;10.02;;;17.00;99.90;;;;;;4966931;28;20042;-50
2023/09/06 04:52:29;;;;;;;11.55;9.88;;;17.00;99.90;;;;;;4967501;28;20050;-48
2023/09/06 04:54:55;;;;;;;11.00;9.40;;;16.90;99.90;;;;;;4969033;28;20038;-48
2023/09/06 04:57:21;;;;;;;11.15;9.55;;;16.80;99.90;;;;;;4977430;28;20054;-48
2023/09/06 04:59:47;;;;;;;11.90;10.52;;;16.80;99.90;;;;;;4967797;28;20051;-48
2023/09/06 05:02:12;;;;;;;11.63;10.27;;;16.90;99.90;;;;;;4967471;28;20118;-48
2023/09/06 05:04:38;;;;;;;10.95;9.85;;;16.90;99.90;;;;;;4968459;28;20608;-50
2023/09/06 05:07:06;;;;;;;11.25;9.98;;;16.80;99.90;;;;;;4967167;28;20513;-48
2023/09/06 05:09:34;;;;;;;11.20;10.00;;;16.80;99.90;;;;;;4967668;28;20127;-49
2023/09/06 05:12:00;;;;;;;12.57;10.52;;;16.80;99.90;;;;;;4967550;28;20050;-47
2023/09/06 05:14:25;;;;;;;12.23;10.27;;;16.90;99.90;;;;;;4966938;28;20507;-48
2023/09/06 05:16:51;;;;;;;11.18;10.05;;;16.80;99.90;;;;;;4966077;28;20122;-48
2023/09/06 05:19:17;;;;;;;11.27;10.15;;;16.90;99.90;;;;;;4967532;28;20194;-50
2023/09/06 05:21:42;;;;;;;12.05;10.80;;;16.80;99.90;;;;;;4967555;28;20043;-50
2023/09/06 05:24:08;;;;;;;11.40;9.73;;;16.90;99.90;;;;;;4966903;28;20047;-49
2023/09/06 05:26:33;;;;;;;10.68;9.68;;;16.90;99.90;;;;;;4965343;28;20058;-48
2023/09/06 05:28:59;;;;;;;11.57;10.35;;;16.90;99.90;;;;;;4967274;28;20043;-49
2023/09/06 05:31:25;;;;;;;10.88;9.77;;;16.90;99.90;;;;;;4966090;28;20131;-48
2023/09/06 05:33:51;;;;;;;11.18;9.45;;;16.90;99.90;;;;;;4965778;28;20050;-49
2023/09/06 05:36:16;;;;;;;11.60;8.98;;;17.00;99.90;;;;;;4984703;28;20050;-49
2023/09/06 05:38:42;;;;;;;13.80;9.18;;;17.00;99.90;;;;;;4986844;28;20046;-52
2023/09/06 05:41:08;;;;;;;11.13;9.32;;;17.10;99.90;;;;;;4986527;28;20504;-50
2023/09/06 05:43:34;;;;;;;9.88;8.88;;;17.20;99.90;;;;;;4984558;28;20042;-49
2023/09/06 05:45:59;;;;;;;10.38;9.02;;;17.40;99.90;;;;;;4975516;28;20058;-51
2023/09/06 05:48:25;;;;;;;11.18;7.55;;;17.90;99.90;;;;;;4965011;28;20046;-48
2023/09/06 05:50:51;;;;;;;8.52;7.57;;;18.50;99.90;;;;;;4966098;28;20035;-48
2023/09/06 05:53:16;;;;;;;9.80;7.68;;;18.70;99.90;;;;;;4966706;28;20082;-50
2023/09/06 05:55:42;;;;;;;7.97;7.18;;;18.60;99.90;;;;;;4970072;28;20121;-51
2023/09/06 05:58:07;;;;;;;8.48;7.55;;;18.60;99.90;;;;;;4974987;28;20058;-47
2023/09/06 06:00:34;;;;;;;13.23;7.50;;;18.40;99.90;;;;;;4966007;28;20056;-51
2023/09/06 06:03:01;;;;;;;9.63;8.63;;;18.40;99.90;;;;;;4966170;28;20101;-48
2023/09/06 06:05:28;;;;;;;9.85;7.60;;;18.30;99.90;;;;;;4966769;28;20588;-48
2023/09/06 06:07:57;;;;;;;11.85;7.63;;;18.40;99.90;;;;;;4965862;28;20090;-50
2023/09/06 06:10:23;;;;;;;10.68;7.57;;;18.40;99.90;;;;;;4967950;28;20394;-51
2023/09/06 06:12:49;;;;;;;10.32;7.40;;;18.60;99.90;;;;;;4985859;28;20052;-49
2023/09/06 06:15:15;;;;;;;10.25;7.90;;;18.80;99.90;;;;;;4986017;28;20046;-49
2023/09/06 06:17:42;;;;;;;8.70;7.40;;;18.90;99.90;;;;;;4985030;28;20046;-47
2023/09/06 06:20:10;;;;;;;10.55;6.45;;;19.10;99.90;;;;;;4978029;28;20038;-46
2023/09/06 06:22:38;;;;;;;8.68;7.03;;;19.50;99.90;;;;;;4974159;28;20050;-48
2023/09/06 06:25:10;;;;;;;9.73;7.00;;;19.90;99.90;;;;;;4974581;28;20093;-49
2023/09/06 06:27:37;;;;;;;10.10;7.10;;;20.30;99.90;;;;;;4978862;28;20125;-47
2023/09/06 06:30:05;;;;;;;8.50;6.60;;;20.50;99.90;;;;;;4968528;28;20598;-48
2023/09/06 06:32:32;;;;;;;7.93;6.35;;;20.90;99.90;;;;;;4964397;28;20097;-48
2023/09/06 06:35:01;;;;;;;9.43;6.20;;;21.40;99.90;;;;;;4977028;28;20050;-50
2023/09/06 06:37:27;;;;;;;10.82;6.00;;;21.80;99.90;;;;;;4976031;28;20401;-48
2023/09/06 06:39:54;;;;;;;7.55;5.95;;;22.10;99.90;;;;;;4985184;28;20042;-48
2023/09/06 06:42:20;;;;;;;6.95;5.70;;;22.40;99.90;;;;;;4985817;28;20555;-49
2023/09/06 06:44:46;;;;;;;9.85;5.70;;;22.60;99.90;;;;;;4974369;28;20089;-50
2023/09/06 06:47:12;;;;;;;6.32;5.45;;;22.70;99.90;;;;;;4976552;28;20035;-48
2023/09/06 06:49:41;;;;;;;8.43;5.82;;;22.80;99.90;;;;;;4969308;28;20057;-48
2023/09/06 06:52:07;;;;;;;7.40;6.05;;;22.80;99.90;;;;;;4979051;28;20436;-47
2023/09/06 06:54:32;;;;;;;8.35;5.47;;;22.80;99.90;;;;;;4964518;28;20049;-49
2023/09/06 06:56:58;;;;;;;8.10;5.45;;;23.00;99.90;;;;;;4975022;28;20286;-51
2023/09/06 06:59:23;;;;;;;9.48;5.47;;;23.30;99.90;;;;;;4977889;28;20042;-48
2023/09/06 07:01:49;;;;;;;7.30;5.40;;;23.60;99.90;;;;;;4966223;28;20046;-51
2023/09/06 07:04:15;;;;;;;6.70;4.90;;;23.80;99.90;;;;;;4963440;28;20501;-48
2023/09/06 07:06:40;;;;;;;6.78;4.90;;;23.70;99.90;;;;;;4963915;28;20456;-49
2023/09/06 07:09:06;;;;;;;6.97;4.72;;;23.80;99.90;;;;;;4985476;28;20054;-48
2023/09/06 07:11:33;;;;;;;6.78;5.13;;;24.00;99.90;;;;;;4969131;28;20493;-49
2023/09/06 07:13:59;;;;;;;10.30;5.20;;;23.90;99.90;;;;;;4964780;28;20242;-50
2023/09/06 07:16:24;;;;;;;6.97;4.72;;;23.80;99.90;;;;;;4979461;28;20129;-52
2023/09/06 07:18:51;;;;;;;7.78;4.63;;;23.80;99.90;;;;;;4964657;28;20034;-50
2023/09/06 07:21:18;;;;;;;9.68;4.50;;;23.80;99.90;;;;;;4980605;28;20055;-49
2023/09/06 07:23:43;;;;;;;7.25;4.13;;;23.80;99.90;;;;;;4965222;28;20053;-50
2023/09/06 07:26:09;;;;;;;6.70;4.38;;;23.80;99.90;;;;;;4965149;28;20150;-50
2023/09/06 07:28:46;;;;;;;6.47;4.20;;;23.90;99.90;;;;;;4965209;28;20042;-50
2023/09/06 07:31:12;;;;;;;6.32;4.07;;;24.00;99.90;;;;;;4964712;28;20042;-48
2023/09/06 07:33:38;;;;;;;6.80;4.13;;;24.40;99.90;;;;;;4964488;28;20192;-48
2023/09/06 07:36:05;;;;;;;4.70;3.67;;;24.60;99.90;;;;;;4965254;28;20046;-49
2023/09/06 07:38:31;;;;;;;6.50;3.75;;;24.90;99.90;;;;;;4965417;28;20090;-50
2023/09/06 07:40:58;;;;;;;7.72;3.83;;;25.10;99.90;;;;;;4964422;28;20767;-48
2023/09/06 07:43:28;;;;;;;5.57;3.85;;;25.20;99.90;;;;;;4964604;28;20046;-50
2023/09/06 07:45:58;;;;;;;6.35;3.55;;;25.10;99.90;;;;;;4965352;28;20047;-48
2023/09/06 07:48:31;;;;;;;4.68;3.50;;;25.40;99.90;;;;;;4963696;28;20054;-48
2023/09/06 07:50:59;;;;;;;5.20;3.30;;;25.50;99.80;;;;;;4965322;28;20394;-49
2023/09/06 07:53:26;;;;;;;8.23;3.30;;;25.80;99.50;;;;;;4971461;28;20118;-48
2023/09/06 07:55:53;;;;;;;7.85;3.30;;;25.90;99.20;;;;;;4974259;28;20550;-48
2023/09/06 07:58:18;;;;;;;6.15;3.90;;;25.80;99.20;;;;;;4971011;28;20039;-51
2023/09/06 08:00:44;;;;;;;6.45;3.30;;;25.70;99.40;;;;;;4966626;28;20539;-50
2023/09/06 08:03:11;;;;;;;4.50;3.28;;;25.40;99.90;;;;;;4974179;28;20129;-49
2023/09/06 08:05:37;;;;;;;6.72;3.35;;;25.10;99.90;;;;;;4972878;28;20074;-49
2023/09/06 08:08:11;;;;;;;6.47;3.35;;;24.50;99.90;;;;;;4964265;28;20058;-49
2023/09/06 08:10:38;;;;;;;6.57;3.08;;;24.10;99.90;;;;;;4969394;28;20042;-49
2023/09/06 08:13:04;;;;;;;5.05;2.88;;;23.90;99.90;;;;;;4983512;28;20516;-49
2023/09/06 08:15:31;;;;;;;4.80;2.70;;;23.80;99.90;;;;;;4981390;28;20054;-49
2023/09/06 08:17:57;;;;;;;4.00;2.78;;;23.80;99.90;;;;;;4962449;28;20050;-51
2023/09/06 08:20:22;;;;;;;4.40;2.58;;;23.80;99.90;;;;;;4963726;28;20438;-52
2023/09/06 08:22:48;;;;;;;5.60;2.42;;;23.90;99.90;;;;;;4977850;28;20040;-51
2023/09/06 08:25:15;;;;;;;4.90;2.28;;;23.90;99.90;;;;;;4978423;28;20038;-50
2023/09/06 08:27:41;;;;;;;3.60;2.20;;;24.00;99.90;;;;;;4965985;28;20061;-50
2023/09/06 08:30:10;;;;;;;4.75;2.40;;;24.10;99.90;;;;;;4965008;28;20661;-52
2023/09/06 08:32:40;;;;;;;3.55;2.22;;;24.10;99.90;;;;;;4963463;28;20055;-52
2023/09/06 08:35:07;;;;;;;5.10;2.50;;;24.20;99.90;;;;;;4974678;28;20050;-51
2023/09/06 08:37:33;;;;;;;4.25;1.92;;;24.30;99.90;;;;;;4982135;28;20049;-51
2023/09/06 08:39:59;;;;;;;4.60;2.30;;;24.40;99.90;;;;;;4980245;28;20046;-49
2023/09/06 08:42:27;;;;;;;4.25;2.50;;;24.50;99.90;;;;;;4983356;28;20048;-49
2023/09/06 08:44:55;;;;;;;4.95;2.10;;;24.60;99.10;;;;;;4983196;28;20126;-48
2023/09/06 08:47:21;;;;;;;3.95;2.10;;;24.80;99.20;;;;;;4972778;28;20254;-49
2023/09/06 08:49:47;;;;;;;3.65;2.08;;;24.80;98.80;;;;;;4967930;28;20109;-48
2023/09/06 08:52:14;;;;;;;4.28;2.15;;;24.90;99.00;;;;;;4997839;28;20129;-51
2023/09/06 08:54:44;;;;;;;4.00;2.15;;;25.00;99.60;;;;;;4997441;28;20096;-50
2023/09/06 08:57:13;;;;;;;3.35;1.80;;;25.40;99.10;;;;;;4978296;28;20062;-49
2023/09/06 08:59:40;;;;;;;3.90;2.40;;;26.10;98.20;;;;;;4981960;28;20090;-52
2023/09/06 09:02:10;;;;;;;5.60;2.17;;;26.60;96.30;;;;;;4982582;28;20448;-52
2023/09/06 09:04:40;;;;;;;4.05;2.25;;;27.00;95.90;;;;;;4998519;28;20073;-50
2023/09/06 09:07:11;;;;;;;3.67;2.05;;;27.20;95.10;;;;;;4983944;28;20061;-52
2023/09/06 09:09:59;;;;;;;5.25;2.13;;;27.20;93.90;;;;;;4986763;28;20054;-52
2023/09/06 09:12:29;;;;;;;3.15;1.98;;;27.20;94.00;;;;;;4986077;28;20058;-53
2023/09/06 09:14:56;;;;;;;3.50;2.00;;;27.20;93.90;;;;;;4974982;28;20035;-52
2023/09/06 09:17:23;;;;;;;4.18;2.15;;;27.20;93.90;;;;;;4967285;28;20118;-52
2023/09/06 09:19:51;;;;;;;3.78;2.17;;;27.30;94.30;;;;;;4967519;28;20038;-52
2023/09/06 09:22:24;;;;;;;4.10;1.92;;;27.50;94.10;;;;;;4983088;28;20054;-51
2023/09/06 09:24:55;;;;;;;5.35;1.92;;;27.60;94.30;;;;;;4977981;28;20075;-53
2023/09/06 09:27:21;;;;;;;4.78;2.10;;;27.80;94.50;;;;;;4967617;28;20039;-52
2023/09/06 09:29:47;;;;;;;3.17;2.10;;;28.00;94.40;;;;;;4966987;28;20112;-55
2023/09/06 09:32:13;;;;;;;3.58;2.10;;;28.00;94.30;;;;;;4966093;28;20058;-49
2023/09/06 09:34:44;;;;;;;4.40;2.00;;;28.00;94.10;;;;;;4969298;28;20090;-50
2023/09/06 09:37:10;;;;;;;5.10;1.83;;;27.90;94.00;;;;;;4986171;28;20049;-52
2023/09/06 09:39:37;;;;;;;4.65;1.98;;;28.00;94.10;;;;;;4985063;28;20050;-52
2023/09/06 09:42:05;;;;;;;3.38;1.85;;;28.00;94.30;;;;;;4978989;28;20448;-53
2023/09/06 09:44:30;;;;;;;3.95;2.10;;;28.00;94.30;;;;;;4969737;28;20141;-53
2023/09/06 09:46:59;;;;;;;5.22;1.83;;;28.20;94.80;;;;;;4982120;28;20133;-50
2023/09/06 09:49:26;;;;;;;2.63;1.77;;;28.50;94.00;;;;;;4967314;28;20443;-48
2023/09/06 09:51:52;;;;;;;4.60;1.92;;;28.60;92.60;;;;;;4970578;28;20074;-52
2023/09/06 09:54:21;;;;;;;4.57;2.40;;;28.60;93.00;;;;;;4977669;28;20034;-49
2023/09/06 09:57:00;;;;;;;3.28;2.03;;;28.60;92.70;;;;;;4970632;28;20050;-53
2023/09/06 09:59:26;;;;;;;6.68;2.08;;;28.70;93.40;;;;;;4965772;28;20097;-51
2023/09/06 10:01:53;;;;;;;6.30;2.15;;;28.80;93.20;;;;;;4964281;28;20051;-51
2023/09/06 10:04:20;;;;;;;3.85;2.10;;;28.90;92.80;;;;;;4965715;28;20078;-54
2023/09/06 10:06:47;;;;;;;4.95;2.30;;;28.90;93.20;;;;;;4966554;28;20067;-53
2023/09/06 10:09:16;;;;;;;4.53;2.22;;;29.00;92.80;;;;;;4966317;28;20043;-53
2023/09/06 10:11:42;;;;;;;3.10;2.00;;;29.10;92.60;;;;;;4969847;28;20621;-53
2023/09/06 10:14:11;;;;;;;4.47;2.17;;;29.10;92.90;;;;;;4977458;28;20489;-53
2023/09/06 10:16:38;;;;;;;4.15;2.00;;;29.20;93.40;;;;;;4976866;28;20046;-52
2023/09/06 10:19:04;;;;;;;4.72;2.00;;;29.40;93.00;;;;;;4981653;28;20097;-52
2023/09/06 10:21:31;;;;;;;5.20;2.20;;;29.50;92.70;;;;;;4985962;28;20405;-53
2023/09/06 10:23:58;;;;;;;4.68;1.98;;;29.60;92.30;;;;;;4984934;28;20042;-54
2023/09/06 10:26:26;;;;;;;2.55;1.80;;;29.70;92.50;;;;;;4984109;28;20042;-54
2023/09/06 10:28:59;;;;;;;3.10;2.13;;;29.80;92.80;;;;;;4981180;28;20543;-52
2023/09/06 10:31:48;;;;;;;4.30;2.00;;;30.00;92.30;;;;;;4974200;28;20046;-53
2023/09/06 10:34:15;;;;;;;6.78;2.00;;;30.10;91.80;;;;;;4973829;28;20549;-53
2023/09/06 10:36:58;;;;;;;3.83;1.80;;;30.10;92.20;;;;;;4968797;28;20054;-50
2023/09/06 10:39:28;;;;;;;5.35;1.77;;;30.20;91.70;;;;;;4966057;28;20161;-54
2023/09/06 10:42:09;;;;;;;3.53;1.95;;;30.20;91.80;;;;;;4967561;28;20050;-54
2023/09/06 10:44:53;;;;;;;3.28;1.92;;;30.20;92.00;;;;;;4983354;28;20046;-53
2023/09/06 10:47:37;;;;;;;7.72;2.17;;;30.20;92.20;;;;;;4984049;28;20042;-51
2023/09/06 10:50:22;;;;;;;2.42;1.70;;;30.40;92.70;;;;;;4967168;28;20047;-53
2023/09/06 10:52:52;;;;;;;5.85;1.90;;;30.70;91.70;;;;;;4964919;28;20121;-52
2023/09/06 10:55:23;;;;;;;3.85;1.92;;;30.70;91.70;;;;;;4970105;28;20030;-53
2023/09/06 10:57:52;;;;;;;6.22;1.80;;;30.90;91.60;;;;;;4981738;28;20089;-54
2023/09/06 11:00:20;;;;;;;3.63;2.00;;;31.00;91.30;;;;;;4975026;28;20086;-54
2023/09/06 11:03:07;;;;;;;2.58;1.70;;;31.10;91.80;;;;;;4974993;28;20834;-53
2023/09/06 11:05:42;;;;;;;7.07;1.83;;;31.30;91.30;;;;;;4977305;28;20074;-53
2023/09/06 11:08:09;;;;;;;8.02;2.20;;;31.40;91.30;;;;;;4979577;28;20087;-51
2023/09/06 11:10:36;;;;;;;4.82;2.10;;;31.30;91.60;;;;;;4984983;28;20054;-56
2023/09/06 11:13:14;;;;;;;4.03;1.75;;;31.40;91.60;;;;;;4983050;28;20050;-53
2023/09/06 11:15:41;;;;;;;3.33;1.88;;;31.50;91.90;;;;;;4984913;28;20054;-54
2023/09/06 11:18:08;;;;;;;6.10;2.10;;;31.70;92.00;;;;;;4983506;28;20053;-56
2023/09/06 11:20:35;;;;;;;3.88;2.03;;;31.80;92.00;;;;;;4983379;28;20046;-55
2023/09/06 11:23:02;;;;;;;3.83;2.30;;;31.90;90.80;;;;;;4984726;28;20042;-54
2023/09/06 11:25:29;;;;;;;6.35;2.00;;;31.80;90.50;;;;;;4984335;28;20100;-55
2023/09/06 11:27:59;;;;;;;3.40;1.88;;;31.50;90.90;;;;;;4984020;28;20461;-54
2023/09/06 11:30:26;;;;;;;4.03;2.10;;;31.40;90.70;;;;;;4983884;28;20046;-53
2023/09/06 11:32:56;;;;;;;2.70;1.63;;;31.30;90.90;;;;;;4983515;28;20077;-52
2023/09/06 11:35:27;;;;;;;6.40;2.00;;;31.30;90.50;;;;;;4979537;28;20073;-52
2023/09/06 11:37:56;;;;;;;2.65;1.77;;;31.20;91.10;;;;;;4973660;28;20271;-47
2023/09/06 11:40:25;;;;;;;3.22;1.92;;;31.10;90.80;;;;;;4964655;28;20106;-50
2023/09/06 11:42:54;;;;;;;2.58;1.80;;;31.10;91.10;;;;;;4963949;28;20046;-54
2023/09/06 11:45:21;;;;;;;4.55;1.80;;;31.10;91.10;;;;;;4964441;28;20096;-53
2023/09/06 11:47:47;;;;;;;3.85;1.80;;;31.20;91.50;;;;;;4963943;28;20049;-53
2023/09/06 11:50:18;;;;;;;2.42;1.70;;;31.50;91.80;;;;;;4964385;28;20050;-55
2023/09/06 11:52:48;;;;;;;2.30;1.70;;;31.70;91.50;;;;;;4964236;28;20616;-53
2023/09/06 11:55:18;;;;;;;4.43;1.90;;;31.90;91.40;;;;;;4967624;28;20047;-54
2023/09/06 11:57:57;;;;;;;2.50;1.80;;;32.00;91.10;;;;;;4966027;28;20042;-52
2023/09/06 12:00:45;;;;;;;7.07;1.90;;;32.20;90.50;;;;;;4963771;28;20051;-53
2023/09/06 12:03:19;;;;;;;5.53;1.90;;;32.00;90.70;;;;;;4969444;28;20050;-53
2023/09/06 12:05:54;;;;;;;;;;;32.00;90.90;;;;;;4984546;28;20070;-53
2023/09/06 12:08:22;;;;;;;2.97;1.83;;;32.00;90.60;;;;;;4983957;28;19929;-52
2023/09/06 12:10:52;;;;;;;5.15;1.90;;;32.00;90.30;;;;;;4982158;28;20069;-51
2023/09/06 12:13:28;;;;;;;2.78;1.77;;;32.00;90.80;;;;;;4983708;28;20046;-51
2023/09/06 12:15:56;;;;;;;5.25;1.85;;;32.10;90.60;;;;;;4982903;28;20046;-53
2023/09/06 12:18:24;;;;;;;3.42;1.92;;;32.10;90.10;;;;;;4984112;28;20057;-52
2023/09/06 12:20:50;;;;;;;4.63;1.73;;;32.10;90.30;;;;;;4983601;28;20393;-53
2023/09/06 12:23:19;;;;;;;2.72;2.00;;;32.00;90.40;;;;;;4983210;28;20046;-52
2023/09/06 12:25:45;;;;;;;3.50;1.60;;;31.80;90.40;;;;;;4983556;28;20100;-53
2023/09/06 12:28:10;;;;;;;3.55;1.92;;;31.80;90.60;;;;;;4984042;28;20039;-52
2023/09/06 12:30:36;;;;;;;4.30;1.80;;;31.90;90.40;;;;;;4983484;28;20049;-52
2023/09/06 12:33:03;;;;;;;4.07;1.80;;;32.10;89.70;;;;;;4983035;28;20039;-51
2023/09/06 12:35:29;;;;;;;3.45;1.60;;;32.00;89.70;;;;;;4983238;28;20046;-55
2023/09/06 12:37:57;;;;;;;3.85;1.65;;;31.90;90.00;;;;;;4983037;28;20038;-52
2023/09/06 12:40:27;;;;;;;2.83;1.70;;;31.90;89.50;;;;;;4983889;28;20046;-53
2023/09/06 12:42:53;;;;;;;4.00;1.65;;;31.90;89.40;;;;;;4987256;28;20081;-54